Time;durP1;ratioP1;P1;durP2;ratioP2;P2;SDS_P1;SDS_P2;PMS_P1;PMS_P2;Temp;Humidity;BMP_temperature;BMP_pressure;BME280_temperature;BME280_humidity;BME280_pressure;Samples;Min_cycle;Max_cycle;Signal;HPM_P1;HPM_P2
2022/07/18 00:01:02;;;;;;;2.05;1.70;;;;;;;;;;4976305;28;20420;-53
2022/07/18 00:03:28;;;;;;;4.88;1.90;;;;;;;;;;4969964;28;20239;-53
2022/07/18 00:05:55;;;;;;;3.28;1.90;;;;;;;;;;4964437;28;20245;-53
2022/07/18 00:08:21;;;;;;;2.28;1.70;;;;;;;;;;4967786;28;20244;-53
2022/07/18 00:10:47;;;;;;;4.18;1.85;;;;;;;;;;4968511;28;20234;-54
2022/07/18 00:13:15;;;;;;;2.70;1.58;;;;;;;;;;4965156;28;20252;-53
2022/07/18 00:15:41;;;;;;;4.85;1.90;;;;;;;;;;4966093;28;20235;-53
2022/07/18 00:18:08;;;;;;;1.85;1.65;;;;;;;;;;4966979;28;20245;-53
2022/07/18 00:20:34;;;;;;;2.38;1.60;;;;;;;;;;4970642;28;20238;-55
2022/07/18 00:23:00;;;;;;;1.95;1.73;;;;;;;;;;4969230;28;20257;-54
2022/07/18 00:25:27;;;;;;;2.55;1.90;;;;;;;;;;4974222;28;20245;-61
2022/07/18 00:27:53;;;;;;;4.93;1.42;;;;;;;;;;4973115;28;20317;-53
2022/07/18 00:30:21;;;;;;;2.58;2.05;;;;;;;;;;4970405;28;20225;-53
2022/07/18 00:32:47;;;;;;;2.47;1.30;;;;;;;;;;4969651;28;20243;-53
2022/07/18 00:35:13;;;;;;;1.85;1.35;;;;;;;;;;4969457;28;20275;-54
2022/07/18 00:37:39;;;;;;;1.88;1.40;;;;;;;;;;4968983;28;20723;-52
2022/07/18 00:40:06;;;;;;;3.42;1.40;;;;;;;;;;4966215;28;20251;-52
2022/07/18 00:42:32;;;;;;;2.65;1.52;;;;;;;;;;4962120;28;20234;-53
2022/07/18 00:44:59;;;;;;;4.03;1.98;;;;;;;;;;4967522;28;20251;-53
2022/07/18 00:47:26;;;;;;;1.73;1.60;;;;;;;;;;4955821;28;20729;-53
2022/07/18 00:49:53;;;;;;;1.90;1.55;;;;;;;;;;4941936;28;20841;-53
2022/07/18 00:52:19;;;;;;;2.85;1.42;;;;;;;;;;4948609;28;20239;-53
2022/07/18 00:54:46;;;;;;;1.58;1.48;;;;;;;;;;4959473;28;20231;-53
2022/07/18 00:57:13;;;;;;;3.03;1.73;;;;;;;;;;4969387;28;20728;-53
2022/07/18 01:02:25;;;;;;;1.70;1.60;;;;;;;;;;4951861;28;20286;-53
2022/07/18 01:04:53;;;;;;;4.50;1.77;;;;;;;;;;4960345;28;20427;-53
2022/07/18 01:07:19;;;;;;;2.38;1.88;;;;;;;;;;4955284;28;20239;-55
2022/07/18 01:09:45;;;;;;;2.05;1.73;;;;;;;;;;4967966;28;20238;-53
2022/07/18 01:12:12;;;;;;;2.97;1.90;;;;;;;;;;4965516;28;21055;-53
2022/07/18 01:14:38;;;;;;;4.18;2.15;;;;;;;;;;4967487;28;20232;-53
2022/07/18 01:17:12;;;;;;;2.28;2.00;;;;;;;;;;4965352;28;20245;-54
2022/07/18 01:19:38;;;;;;;2.42;2.17;;;;;;;;;;4965132;28;20674;-53
2022/07/18 01:22:06;;;;;;;2.40;2.20;;;;;;;;;;4956269;28;20242;-54
2022/07/18 01:24:32;;;;;;;3.40;2.05;;;;;;;;;;4966221;28;20226;-53
2022/07/18 01:26:58;;;;;;;4.18;2.60;;;;;;;;;;4962116;28;20246;-53
2022/07/18 01:29:25;;;;;;;5.07;2.45;;;;;;;;;;4960784;28;20245;-52
2022/07/18 01:31:51;;;;;;;4.93;2.47;;;;;;;;;;4965538;28;20249;-53
2022/07/18 01:34:21;;;;;;;3.78;2.67;;;;;;;;;;4964422;28;20262;-54
2022/07/18 01:36:47;;;;;;;5.75;2.42;;;;;;;;;;4964237;28;20241;-52
2022/07/18 01:39:15;;;;;;;2.58;2.28;;;;;;;;;;4973801;28;20245;-53
2022/07/18 01:41:41;;;;;;;1.92;1.80;;;;;;;;;;4962361;28;20237;-53
2022/07/18 01:44:08;;;;;;;3.30;1.70;;;;;;;;;;4960581;28;20231;-53
2022/07/18 01:46:34;;;;;;;2.83;1.98;;;;;;;;;;4969184;28;20240;-54
2022/07/18 01:49:00;;;;;;;3.72;1.80;;;;;;;;;;4962025;28;20250;-53
2022/07/18 01:51:27;;;;;;;2.78;1.60;;;;;;;;;;4964801;28;20234;-53
2022/07/18 01:53:55;;;;;;;3.20;1.88;;;;;;;;;;4966655;28;20231;-54
2022/07/18 01:56:23;;;;;;;2.05;1.73;;;;;;;;;;4966562;28;20245;-53
2022/07/18 01:58:49;;;;;;;3.03;1.80;;;;;;;;;;4968183;28;20230;-53
2022/07/18 02:01:15;;;;;;;3.33;2.13;;;;;;;;;;4974078;28;20230;-53
2022/07/18 02:03:42;;;;;;;5.18;1.92;;;;;;;;;;4971173;28;20237;-53
2022/07/18 02:06:08;;;;;;;3.03;1.92;;;;;;;;;;4955034;28;20234;-53
2022/07/18 02:08:34;;;;;;;1.55;1.33;;;;;;;;;;4964301;28;20227;-53
2022/07/18 02:11:01;;;;;;;3.83;1.77;;;;;;;;;;4964620;28;20613;-54
2022/07/18 02:13:28;;;;;;;2.90;1.67;;;;;;;;;;4963802;28;20253;-53
2022/07/18 02:15:55;;;;;;;2.00;1.40;;;;;;;;;;4958710;28;20238;-53
2022/07/18 02:18:22;;;;;;;5.65;1.52;;;;;;;;;;4959568;28;20635;-53
2022/07/18 02:20:48;;;;;;;3.58;1.85;;;;;;;;;;4972340;28;20744;-52
2022/07/18 02:23:14;;;;;;;2.60;1.92;;;;;;;;;;4973396;28;20253;-52
2022/07/18 02:25:41;;;;;;;3.72;1.80;;;;;;;;;;4969454;28;20244;-54
2022/07/18 02:28:07;;;;;;;3.00;2.15;;;;;;;;;;4975518;28;20234;-53
2022/07/18 02:30:35;;;;;;;2.10;2.00;;;;;;;;;;4967945;28;20222;-53
2022/07/18 02:33:01;;;;;;;2.53;2.28;;;;;;;;;;4956580;28;20628;-53
2022/07/18 02:35:28;;;;;;;3.42;2.00;;;;;;;;;;4972038;28;20234;-53
2022/07/18 02:37:54;;;;;;;4.35;2.10;;;;;;;;;;4976475;28;20832;-54
2022/07/18 02:40:20;;;;;;;3.95;2.35;;;;;;;;;;4982463;28;20240;-53
2022/07/18 02:42:47;;;;;;;3.58;2.15;;;;;;;;;;4969239;28;20238;-54
2022/07/18 02:45:13;;;;;;;3.72;1.90;;;;;;;;;;4975455;28;20269;-53
2022/07/18 02:47:41;;;;;;;5.25;2.05;;;;;;;;;;4971881;28;20239;-54
2022/07/18 02:50:08;;;;;;;2.83;2.10;;;;;;;;;;4983842;28;20242;-53
2022/07/18 02:52:34;;;;;;;3.95;1.98;;;;;;;;;;4978332;28;20234;-54
2022/07/18 02:55:01;;;;;;;2.78;2.28;;;;;;;;;;4969311;28;20238;-54
2022/07/18 02:57:27;;;;;;;2.78;2.58;;;;;;;;;;4977137;28;20242;-53
2022/07/18 02:59:54;;;;;;;4.57;2.85;;;;;;;;;;4975903;28;20584;-53
2022/07/18 03:02:20;;;;;;;4.18;2.33;;;;;;;;;;4967511;28;20233;-53
2022/07/18 03:04:48;;;;;;;3.28;2.17;;;;;;;;;;4973760;28;20237;-53
2022/07/18 03:07:14;;;;;;;5.05;2.65;;;;;;;;;;4971779;28;20253;-53
2022/07/18 03:09:40;;;;;;;4.07;2.45;;;;;;;;;;4979322;28;20238;-53
2022/07/18 03:12:07;;;;;;;4.97;2.45;;;;;;;;;;4974653;28;20818;-54
2022/07/18 03:14:33;;;;;;;3.17;2.30;;;;;;;;;;4978620;28;20230;-52
2022/07/18 03:17:00;;;;;;;3.15;2.80;;;;;;;;;;4973191;28;20238;-52
2022/07/18 03:19:26;;;;;;;3.30;2.30;;;;;;;;;;4967453;28;20238;-53
2022/07/18 03:21:54;;;;;;;3.20;2.58;;;;;;;;;;4968933;28;20261;-55
2022/07/18 03:24:20;;;;;;;3.40;2.10;;;;;;;;;;4974068;28;20237;-53
2022/07/18 03:26:47;;;;;;;3.05;2.58;;;;;;;;;;4964739;28;20239;-53
2022/07/18 03:29:13;;;;;;;3.55;2.60;;;;;;;;;;4976302;28;20773;-53
2022/07/18 03:31:40;;;;;;;4.00;2.50;;;;;;;;;;4973896;28;20238;-52
2022/07/18 03:34:07;;;;;;;3.00;2.28;;;;;;;;;;4975297;28;20609;-54
2022/07/18 03:36:33;;;;;;;3.67;2.97;;;;;;;;;;4970711;28;20261;-56
2022/07/18 03:39:01;;;;;;;3.20;2.35;;;;;;;;;;4968731;28;20246;-53
2022/07/18 03:41:27;;;;;;;5.90;2.47;;;;;;;;;;4970425;28;20233;-53
2022/07/18 03:43:53;;;;;;;3.63;2.25;;;;;;;;;;4969460;28;20242;-53
2022/07/18 03:46:20;;;;;;;2.85;2.20;;;;;;;;;;4969028;28;20245;-53
2022/07/18 03:48:46;;;;;;;3.35;2.15;;;;;;;;;;4966773;28;20238;-54
2022/07/18 03:51:14;;;;;;;3.20;2.83;;;;;;;;;;4968926;28;20254;-53
2022/07/18 03:53:40;;;;;;;4.32;2.53;;;;;;;;;;4971610;28;20238;-54
2022/07/18 03:56:08;;;;;;;2.83;2.50;;;;;;;;;;4966698;28;20616;-54
2022/07/18 03:58:34;;;;;;;5.45;2.67;;;;;;;;;;4972285;28;20237;-53
2022/07/18 04:01:01;;;;;;;2.58;2.38;;;;;;;;;;4979403;28;20334;-53
2022/07/18 04:03:27;;;;;;;4.18;3.20;;;;;;;;;;4972484;28;20230;-54
2022/07/18 04:05:54;;;;;;;3.30;2.70;;;;;;;;;;4977900;28;20316;-54
2022/07/18 04:08:20;;;;;;;3.17;2.58;;;;;;;;;;4968371;28;20254;-52
2022/07/18 04:10:46;;;;;;;6.82;3.28;;;;;;;;;;4968913;28;20244;-53
2022/07/18 04:13:14;;;;;;;9.40;2.90;;;;;;;;;;4972918;28;20246;-53
2022/07/18 04:15:40;;;;;;;4.45;2.50;;;;;;;;;;4977527;28;20230;-54
2022/07/18 04:18:07;;;;;;;4.78;2.88;;;;;;;;;;4967071;28;20239;-55
2022/07/18 04:20:34;;;;;;;6.45;2.60;;;;;;;;;;4980151;28;20607;-53
2022/07/18 04:23:02;;;;;;;4.95;2.58;;;;;;;;;;4962008;28;20732;-52
2022/07/18 04:25:30;;;;;;;4.65;2.97;;;;;;;;;;4966010;28;20231;-53
2022/07/18 04:27:57;;;;;;;3.78;3.15;;;;;;;;;;4966375;28;20248;-53
2022/07/18 04:30:26;;;;;;;2.72;2.33;;;;;;;;;;4976090;28;20234;-53
2022/07/18 04:32:53;;;;;;;3.70;3.30;;;;;;;;;;4974744;28;20642;-53
2022/07/18 04:35:20;;;;;;;4.80;2.42;;;;;;;;;;4967269;28;20604;-53
2022/07/18 04:37:46;;;;;;;5.00;2.53;;;;;;;;;;4976397;28;20253;-53
2022/07/18 04:40:12;;;;;;;2.30;2.10;;;;;;;;;;4971274;28;20242;-54
2022/07/18 04:42:39;;;;;;;3.67;2.10;;;;;;;;;;4965654;28;20238;-53
2022/07/18 04:45:06;;;;;;;2.70;2.45;;;;;;;;;;4979551;28;20281;-53
2022/07/18 04:47:33;;;;;;;4.63;2.83;;;;;;;;;;4966172;28;20241;-53
2022/07/18 04:50:00;;;;;;;5.57;2.95;;;;;;;;;;4982974;28;20252;-54
2022/07/18 04:52:27;;;;;;;3.38;2.75;;;;;;;;;;4959758;28;20238;-53
2022/07/18 04:54:53;;;;;;;3.17;2.60;;;;;;;;;;4973836;28;20242;-53
2022/07/18 04:57:20;;;;;;;3.53;2.85;;;;;;;;;;4957929;28;20886;-53
2022/07/18 04:59:46;;;;;;;4.18;3.00;;;;;;;;;;4967897;28;20242;-53
2022/07/18 05:02:13;;;;;;;6.65;3.05;;;;;;;;;;4974361;28;20245;-53
2022/07/18 05:04:43;;;;;;;5.22;3.10;;;;;;;;;;4976861;28;20237;-54
2022/07/18 05:07:10;;;;;;;4.78;2.53;;;;;;;;;;4972768;28;20258;-53
2022/07/18 05:09:36;;;;;;;3.88;2.97;;;;;;;;;;4983040;28;20241;-54
2022/07/18 05:12:02;;;;;;;3.53;2.63;;;;;;;;;;4974119;28;20625;-52
2022/07/18 05:14:28;;;;;;;4.85;2.90;;;;;;;;;;4977519;28;20231;-52
2022/07/18 05:16:55;;;;;;;2.60;2.40;;;;;;;;;;4983692;28;20313;-53
2022/07/18 05:19:21;;;;;;;3.92;2.47;;;;;;;;;;4976316;28;20613;-54
2022/07/18 05:21:49;;;;;;;5.85;3.05;;;;;;;;;;4969490;28;20241;-53
2022/07/18 05:24:15;;;;;;;5.60;2.92;;;;;;;;;;4970555;28;20613;-53
2022/07/18 05:26:42;;;;;;;4.50;2.78;;;;;;;;;;4967793;28;20682;-53
2022/07/18 05:29:08;;;;;;;3.22;2.92;;;;;;;;;;4962336;28;20699;-53
2022/07/18 05:31:34;;;;;;;4.75;3.30;;;;;;;;;;4978401;28;20233;-53
2022/07/18 05:34:01;;;;;;;3.70;2.15;;;;;;;;;;4974897;28;20246;-52
2022/07/18 05:36:27;;;;;;;4.30;2.28;;;;;;;;;;4971722;28;20230;-52
2022/07/18 05:38:55;;;;;;;4.15;2.53;;;;;;;;;;4969662;28;20626;-53
2022/07/18 05:41:21;;;;;;;3.63;3.25;;;;;;;;;;4968065;28;20241;-55
2022/07/18 05:43:47;;;;;;;5.22;2.70;;;;;;;;;;4972706;28;20246;-54
2022/07/18 05:46:14;;;;;;;2.92;2.50;;;;;;;;;;4963224;28;20246;-53
2022/07/18 05:48:40;;;;;;;6.22;2.50;;;;;;;;;;4963599;28;20728;-54
2022/07/18 05:51:07;;;;;;;2.53;2.33;;;;;;;;;;4964087;28;20234;-54
2022/07/18 05:53:33;;;;;;;2.88;2.13;;;;;;;;;;4976353;28;20307;-54
2022/07/18 05:56:01;;;;;;;5.43;2.95;;;;;;;;;;4976172;28;20242;-55
2022/07/18 05:58:27;;;;;;;4.82;3.78;;;;;;;;;;4978363;28;20424;-55
2022/07/18 06:00:53;;;;;;;4.28;3.22;;;;;;;;;;4969152;28;20234;-54
2022/07/18 06:03:20;;;;;;;7.55;3.05;;;;;;;;;;4973756;28;20234;-53
2022/07/18 06:05:46;;;;;;;3.72;3.08;;;;;;;;;;4972683;28;20234;-53
2022/07/18 06:08:13;;;;;;;10.52;3.15;;;;;;;;;;4964848;28;20238;-59
2022/07/18 06:10:39;;;;;;;7.35;3.47;;;;;;;;;;4958469;28;20234;-53
2022/07/18 06:13:07;;;;;;;5.97;2.55;;;;;;;;;;4963043;28;20250;-53
2022/07/18 06:15:33;;;;;;;7.28;3.75;;;;;;;;;;4957924;28;20230;-53
2022/07/18 06:17:59;;;;;;;3.45;2.20;;;;;;;;;;4966421;28;20238;-53
2022/07/18 06:20:26;;;;;;;4.82;2.50;;;;;;;;;;4963053;28;21280;-52
2022/07/18 06:22:52;;;;;;;3.35;2.22;;;;;;;;;;4962575;28;20230;-53
2022/07/18 06:25:18;;;;;;;5.05;2.67;;;;;;;;;;4964892;28;20234;-53
2022/07/18 06:27:45;;;;;;;3.78;2.97;;;;;;;;;;4971578;28;20293;-53
2022/07/18 06:30:13;;;;;;;4.50;2.50;;;;;;;;;;4964383;28;20234;-53
2022/07/18 06:32:39;;;;;;;6.45;2.70;;;;;;;;;;4972031;28;20230;-52
2022/07/18 06:35:06;;;;;;;3.88;2.38;;;;;;;;;;4972425;28;20245;-53
2022/07/18 06:37:33;;;;;;;3.03;2.45;;;;;;;;;;4965148;28;20238;-53
2022/07/18 06:39:59;;;;;;;5.82;2.45;;;;;;;;;;4965788;28;20265;-54
2022/07/18 06:42:25;;;;;;;3.47;2.67;;;;;;;;;;4965161;28;20245;-53
2022/07/18 06:44:52;;;;;;;2.38;1.83;;;;;;;;;;4957363;28;20237;-53
2022/07/18 06:47:19;;;;;;;4.25;2.10;;;;;;;;;;4979843;28;20349;-57
2022/07/18 06:49:46;;;;;;;3.55;2.20;;;;;;;;;;4964534;28;20234;-53
2022/07/18 06:52:15;;;;;;;3.17;2.22;;;;;;;;;;4966534;28;20250;-53
2022/07/18 06:54:41;;;;;;;4.70;2.47;;;;;;;;;;4966765;28;20230;-54
2022/07/18 06:57:09;;;;;;;3.58;1.95;;;;;;;;;;4972599;28;20329;-52
2022/07/18 06:59:35;;;;;;;4.65;2.53;;;;;;;;;;4963310;28;20314;-53
2022/07/18 07:02:02;;;;;;;4.13;2.45;;;;;;;;;;4965511;28;20722;-53
2022/07/18 07:04:29;;;;;;;3.15;2.47;;;;;;;;;;4974928;28;20234;-53
2022/07/18 07:06:56;;;;;;;3.40;1.90;;;;;;;;;;4973668;28;20257;-54
2022/07/18 07:09:22;;;;;;;4.60;2.03;;;;;;;;;;4945070;28;20245;-54
2022/07/18 07:11:48;;;;;;;3.17;2.35;;;;;;;;;;4940969;28;20239;-54
2022/07/18 07:14:15;;;;;;;3.10;1.92;;;;;;;;;;4963033;28;20756;-54
2022/07/18 07:16:41;;;;;;;4.60;2.38;;;;;;;;;;4969465;28;20238;-53
2022/07/18 07:19:07;;;;;;;1.73;1.45;;;;;;;;;;4955366;28;20243;-53
2022/07/18 07:21:35;;;;;;;3.85;1.73;;;;;;;;;;4972906;28;20699;-54
2022/07/18 07:24:01;;;;;;;1.85;1.50;;;;;;;;;;4968697;28;20238;-53
2022/07/18 07:26:28;;;;;;;4.32;1.85;;;;;;;;;;4964823;28;20245;-53
2022/07/18 07:28:54;;;;;;;3.50;1.80;;;;;;;;;;4973255;28;20296;-57
2022/07/18 07:31:20;;;;;;;2.75;1.90;;;;;;;;;;4969547;28;20240;-53
2022/07/18 07:33:47;;;;;;;2.90;2.17;;;;;;;;;;4968003;28;20230;-53
2022/07/18 07:36:13;;;;;;;2.08;1.50;;;;;;;;;;4965089;28;20243;-54
2022/07/18 07:38:41;;;;;;;2.50;1.50;;;;;;;;;;4968741;28;20237;-54
2022/07/18 07:41:07;;;;;;;2.45;1.65;;;;;;;;;;4962536;28;20238;-53
2022/07/18 07:43:36;;;;;;;4.13;1.50;;;;;;;;;;4958209;28;20298;-54
2022/07/18 07:46:02;;;;;;;1.42;1.33;;;;;;;;;;4972532;28;20243;-53
2022/07/18 07:48:29;;;;;;;2.35;1.52;;;;;;;;;;4970177;28;20230;-51
2022/07/18 07:50:55;;;;;;;3.83;1.85;;;;;;;;;;4961630;28;20253;-53
2022/07/18 07:53:22;;;;;;;3.92;1.58;;;;;;;;;;4961189;28;20237;-54
2022/07/18 07:55:49;;;;;;;2.65;1.45;;;;;;;;;;4962326;28;20274;-52
2022/07/18 07:58:16;;;;;;;5.35;1.67;;;;;;;;;;4974198;28;20599;-53
2022/07/18 08:00:42;;;;;;;6.82;5.38;;;;;;;;;;4967011;28;20712;-54
2022/07/18 08:03:10;;;;;;;2.05;1.85;;;;;;;;;;4968530;28;20236;-52
2022/07/18 08:05:38;;;;;;;2.55;1.40;;;;;;;;;;4970522;28;20230;-54
2022/07/18 08:08:05;;;;;;;2.38;1.70;;;;;;;;;;4967730;28;20242;-53
2022/07/18 08:10:33;;;;;;;2.00;1.65;;;;;;;;;;4962604;28;20238;-51
2022/07/18 08:13:01;;;;;;;2.97;1.92;;;;;;;;;;4969039;28;20239;-51
2022/07/18 08:15:27;;;;;;;1.67;1.30;;;;;;;;;;4974967;28;20242;-53
2022/07/18 08:17:53;;;;;;;3.65;1.95;;;;;;;;;;4964958;28;20264;-51
2022/07/18 08:20:20;;;;;;;2.88;1.98;;;;;;;;;;4960138;28;20266;-52
2022/07/18 08:22:53;;;;;;;2.80;1.83;;;;;;;;;;4954127;28;20232;-53
2022/07/18 08:25:20;;;;;;;3.67;2.30;;;;;;;;;;4964640;28;20242;-53
2022/07/18 08:27:47;;;;;;;2.85;1.90;;;;;;;;;;4971881;28;20234;-53
2022/07/18 08:30:15;;;;;;;3.05;1.55;;;;;;;;;;4968641;28;20242;-54
2022/07/18 08:32:41;;;;;;;4.53;2.58;;;;;;;;;;4972714;28;20775;-52
2022/07/18 08:35:08;;;;;;;2.58;2.13;;;;;;;;;;4964050;28;20234;-53
2022/07/18 08:37:34;;;;;;;6.75;2.33;;;;;;;;;;4967509;28;20357;-54
2022/07/18 08:40:01;;;;;;;3.67;1.92;;;;;;;;;;4949558;28;20598;-52
2022/07/18 08:42:28;;;;;;;3.53;1.80;;;;;;;;;;4971660;28;20230;-52
2022/07/18 08:44:55;;;;;;;4.35;1.67;;;;;;;;;;4961498;28;20648;-53
2022/07/18 08:47:23;;;;;;;2.33;1.52;;;;;;;;;;4955177;28;20235;-54
2022/07/18 08:49:50;;;;;;;4.55;1.65;;;;;;;;;;4965532;28;20325;-53
2022/07/18 08:52:16;;;;;;;2.88;1.67;;;;;;;;;;4964520;28;20731;-52
2022/07/18 08:54:43;;;;;;;3.90;1.70;;;;;;;;;;4965064;28;20230;-52
2022/07/18 08:57:10;;;;;;;2.40;1.85;;;;;;;;;;4961971;28;20957;-52
2022/07/18 08:59:36;;;;;;;4.65;2.55;;;;;;;;;;4965207;28;20234;-53
2022/07/18 09:02:03;;;;;;;3.35;2.65;;;;;;;;;;4966366;28;20234;-52
2022/07/18 09:04:34;;;;;;;2.65;2.38;;;;;;;;;;4960488;28;20227;-52
2022/07/18 09:07:00;;;;;;;3.53;2.30;;;;;;;;;;4965862;28;20238;-53
2022/07/18 09:09:27;;;;;;;2.58;2.33;;;;;;;;;;4966150;28;20241;-52
2022/07/18 09:11:54;;;;;;;3.60;2.75;;;;;;;;;;4972737;28;20237;-51
2022/07/18 09:14:30;;;;;;;3.42;2.65;;;;;;;;;;4965710;28;20238;-52
2022/07/18 09:17:07;;;;;;;3.85;2.78;;;;;;;;;;4961997;28;20603;-51
2022/07/18 09:19:35;;;;;;;3.85;2.65;;;;;;;;;;4953315;28;20235;-53
2022/07/18 09:22:18;;;;;;;5.57;3.28;;;;;;;;;;4967609;28;20232;-52
2022/07/18 09:24:55;;;;;;;4.45;2.55;;;;;;;;;;4960630;28;20230;-53
2022/07/18 09:27:26;;;;;;;4.13;2.92;;;;;;;;;;4964408;28;20241;-53
2022/07/18 09:30:07;;;;;;;4.15;2.58;;;;;;;;;;4970818;28;20722;-52
2022/07/18 09:32:33;;;;;;;3.67;2.72;;;;;;;;;;4944047;28;20219;-52
2022/07/18 09:35:06;;;;;;;6.75;2.85;;;;;;;;;;4938618;28;20265;-52
2022/07/18 09:37:33;;;;;;;3.67;2.63;;;;;;;;;;4943840;28;20253;-54
2022/07/18 09:40:14;;;;;;;3.55;2.63;;;;;;;;;;4946283;28;20324;-52
2022/07/18 09:42:40;;;;;;;2.53;2.33;;;;;;;;;;4956125;28;20236;-52
2022/07/18 09:45:07;;;;;;;3.65;2.70;;;;;;;;;;4966405;28;20249;-53
2022/07/18 09:47:48;;;;;;;4.82;2.70;;;;;;;;;;4958635;28;20238;-53
2022/07/18 09:50:22;;;;;;;3.25;2.47;;;;;;;;;;4960839;28;20235;-53
2022/07/18 09:52:56;;;;;;;6.40;2.95;;;;;;;;;;4958269;28;20453;-52
2022/07/18 09:55:23;;;;;;;4.28;3.00;;;;;;;;;;4968854;28;20257;-52
2022/07/18 09:57:57;;;;;;;3.90;2.63;;;;;;;;;;4963856;28;20238;-53
2022/07/18 10:00:24;;;;;;;3.28;2.80;;;;;;;;;;4966361;28;20321;-54
2022/07/18 10:02:50;;;;;;;5.38;3.30;;;;;;;;;;4969626;28;20239;-51
2022/07/18 10:05:17;;;;;;;3.50;2.80;;;;;;;;;;4973266;28;20265;-53
2022/07/18 10:07:45;;;;;;;3.90;3.28;;;;;;;;;;4967344;28;20245;-53
2022/07/18 10:10:14;;;;;;;6.82;3.35;;;;;;;;;;4963776;28;20242;-52
2022/07/18 10:12:41;;;;;;;4.80;3.38;;;;;;;;;;4972168;28;20769;-53
2022/07/18 10:15:08;;;;;;;3.00;2.72;;;;;;;;;;4963522;28;20616;-52
2022/07/18 10:17:34;;;;;;;3.13;2.67;;;;;;;;;;4964216;28;20426;-53
2022/07/18 10:20:03;;;;;;;4.93;2.95;;;;;;;;;;4974645;28;20236;-53
2022/07/18 10:22:30;;;;;;;6.13;2.95;;;;;;;;;;4978428;28;20253;-52
2022/07/18 10:24:58;;;;;;;6.05;2.88;;;;;;;;;;4945813;28;20235;-53
2022/07/18 10:27:25;;;;;;;4.88;3.00;;;;;;;;;;4954435;28;20238;-53
2022/07/18 10:30:08;;;;;;;5.72;3.22;;;;;;;;;;4960979;28;20231;-52
2022/07/18 10:32:34;;;;;;;3.05;2.47;;;;;;;;;;4958947;28;20221;-52
2022/07/18 10:35:00;;;;;;;4.53;3.20;;;;;;;;;;4958837;28;20242;-53
2022/07/18 10:37:33;;;;;;;3.42;3.13;;;;;;;;;;4957575;28;20435;-54
2022/07/18 10:40:21;;;;;;;3.67;2.80;;;;;;;;;;4969254;28;20322;-53
2022/07/18 10:43:07;;;;;;;7.43;3.05;;;;;;;;;;4965230;28;20251;-52
2022/07/18 10:45:43;;;;;;;13.60;10.45;;;;;;;;;;4957086;28;20366;-52
2022/07/18 10:48:24;;;;;;;4.45;2.95;;;;;;;;;;4960855;28;20248;-52
2022/07/18 10:51:00;;;;;;;5.20;3.65;;;;;;;;;;4971853;28;20233;-52
2022/07/18 10:53:49;;;;;;;3.95;2.42;;;;;;;;;;4961473;28;20244;-54
2022/07/18 10:56:17;;;;;;;4.60;3.33;;;;;;;;;;4954270;28;20317;-51
2022/07/18 10:58:43;;;;;;;3.72;3.08;;;;;;;;;;4961616;28;20227;-53
2022/07/18 11:01:15;;;;;;;4.35;3.65;;;;;;;;;;4965135;28;20233;-52
2022/07/18 11:03:41;;;;;;;4.35;2.90;;;;;;;;;;4966679;28;20314;-53
2022/07/18 11:06:07;;;;;;;7.10;5.03;;;;;;;;;;4974206;28;20714;-51
2022/07/18 11:08:34;;;;;;;8.00;5.18;;;;;;;;;;4962860;28;20238;-52
2022/07/18 11:11:10;;;;;;;6.05;4.25;;;;;;;;;;4967523;28;20249;-52
2022/07/18 11:13:39;;;;;;;4.57;3.42;;;;;;;;;;4968698;28;20288;-51
2022/07/18 11:16:09;;;;;;;3.78;2.60;;;;;;;;;;4983606;28;20242;-54
2022/07/18 11:19:07;;;;;;;3.63;3.30;;;;;;;;;;4960481;28;20242;-52
2022/07/18 11:21:34;;;;;;;5.28;4.07;;;;;;;;;;4910072;29;20239;-53
2022/07/18 11:24:01;;;;;;;4.32;3.22;;;;;;;;;;4921604;29;20301;-51
2022/07/18 11:26:29;;;;;;;3.47;3.17;;;;;;;;;;4904362;29;20237;-52
2022/07/18 11:28:59;;;;;;;5.60;3.55;;;;;;;;;;4920562;29;20218;-52
2022/07/18 11:31:26;;;;;;;3.42;3.13;;;;;;;;;;4923272;28;20205;-52
2022/07/18 11:33:52;;;;;;;3.42;3.05;;;;;;;;;;4909680;29;20209;-50
2022/07/18 11:36:19;;;;;;;4.00;3.13;;;;;;;;;;4915262;28;20619;-52
2022/07/18 11:38:47;;;;;;;6.35;3.70;;;;;;;;;;4916386;29;20459;-52
2022/07/18 11:41:13;;;;;;;3.97;3.00;;;;;;;;;;4920570;29;20220;-52
2022/07/18 11:43:40;;;;;;;4.80;3.97;;;;;;;;;;4904994;29;20213;-52
2022/07/18 11:46:08;;;;;;;4.63;3.85;;;;;;;;;;4907425;29;20304;-52
2022/07/18 11:48:35;;;;;;;4.50;3.17;;;;;;;;;;4916953;29;20215;-51
2022/07/18 11:51:02;;;;;;;3.28;2.90;;;;;;;;;;4911062;29;20691;-52
2022/07/18 11:53:29;;;;;;;9.40;3.65;;;;;;;;;;4940414;28;20234;-53
2022/07/18 11:55:56;;;;;;;4.80;3.45;;;;;;;;;;4953290;28;20242;-51
2022/07/18 11:58:23;;;;;;;6.25;4.75;;;;;;;;;;4954642;28;20248;-51
2022/07/18 12:00:49;;;;;;;4.45;3.53;;;;;;;;;;4953961;28;20290;-51
2022/07/18 12:03:17;;;;;;;3.38;3.08;;;;;;;;;;4962871;28;20259;-52
2022/07/18 12:05:48;;;;;;;3.92;3.53;;;;;;;;;;4965441;28;20230;-52
2022/07/18 12:08:28;;;;;;;4.03;3.63;;;;;;;;;;4970363;28;20242;-53
2022/07/18 12:11:07;;;;;;;4.75;3.47;;;;;;;;;;4967018;28;20703;-52
2022/07/18 12:13:43;;;;;;;4.40;3.63;;;;;;;;;;4969563;28;20226;-51
2022/07/18 12:16:21;;;;;;;4.00;3.60;;;;;;;;;;4972225;28;20231;-51
2022/07/18 12:18:50;;;;;;;4.65;3.05;;;;;;;;;;4955808;28;20234;-52
2022/07/18 12:21:17;;;;;;;4.45;2.67;;;;;;;;;;4972076;28;20715;-51
2022/07/18 12:23:43;;;;;;;3.03;2.45;;;;;;;;;;4972032;28;20237;-50
2022/07/18 12:26:10;;;;;;;4.78;3.08;;;;;;;;;;4966966;28;20239;-51
2022/07/18 12:28:36;;;;;;;3.25;2.90;;;;;;;;;;4967557;28;20262;-51
2022/07/18 12:31:02;;;;;;;4.65;3.60;;;;;;;;;;4964167;28;20240;-51
2022/07/18 12:33:29;;;;;;;6.03;3.63;;;;;;;;;;4981557;28;20236;-53
2022/07/18 12:35:57;;;;;;;6.40;4.03;;;;;;;;;;4963642;28;21116;-53
2022/07/18 12:38:24;;;;;;;3.63;3.10;;;;;;;;;;4969878;28;20222;-50
2022/07/18 12:40:52;;;;;;;4.32;3.28;;;;;;;;;;4954920;28;20254;-52
2022/07/18 12:43:22;;;;;;;4.90;3.38;;;;;;;;;;4968148;28;20231;-50
2022/07/18 12:45:49;;;;;;;4.03;3.20;;;;;;;;;;4962108;28;20246;-52
2022/07/18 12:48:15;;;;;;;4.03;3.63;;;;;;;;;;4966378;28;20692;-51
2022/07/18 12:50:42;;;;;;;5.15;3.72;;;;;;;;;;4957403;28;20230;-52
2022/07/18 12:53:10;;;;;;;6.57;4.35;;;;;;;;;;4965364;28;20712;-53
2022/07/18 12:55:36;;;;;;;5.25;3.88;;;;;;;;;;4963124;28;20240;-52
2022/07/18 12:58:05;;;;;;;4.32;3.50;;;;;;;;;;4962360;28;20665;-52
2022/07/18 13:00:32;;;;;;;5.53;3.38;;;;;;;;;;4964595;28;20280;-52
2022/07/18 13:02:59;;;;;;;8.05;3.03;;;;;;;;;;4972300;28;20252;-52
2022/07/18 13:05:25;;;;;;;4.25;3.53;;;;;;;;;;4973248;28;20231;-52
2022/07/18 13:07:52;;;;;;;3.85;3.45;;;;;;;;;;4976842;28;20234;-52
2022/07/18 13:10:19;;;;;;;4.15;3.72;;;;;;;;;;4963274;28;20241;-52
2022/07/18 13:12:46;;;;;;;4.43;3.08;;;;;;;;;;4967182;28;20693;-52
2022/07/18 13:15:12;;;;;;;3.88;3.42;;;;;;;;;;4962158;28;20625;-52
2022/07/18 13:17:39;;;;;;;4.50;3.38;;;;;;;;;;4967374;28;20258;-52
2022/07/18 13:20:06;;;;;;;3.47;3.17;;;;;;;;;;4966430;28;20242;-52
2022/07/18 13:22:37;;;;;;;3.90;3.17;;;;;;;;;;4970587;28;20241;-52
2022/07/18 13:25:03;;;;;;;3.35;3.08;;;;;;;;;;4968844;28;20325;-52
2022/07/18 13:27:31;;;;;;;4.60;3.65;;;;;;;;;;4963121;28;20238;-51
2022/07/18 13:29:58;;;;;;;3.15;2.83;;;;;;;;;;4970096;28;20231;-51
2022/07/18 13:32:24;;;;;;;3.83;2.63;;;;;;;;;;4973455;28;20233;-52
2022/07/18 13:34:50;;;;;;;4.53;3.17;;;;;;;;;;4955584;28;20241;-52
2022/07/18 13:37:17;;;;;;;3.40;2.97;;;;;;;;;;4967263;28;20238;-51
2022/07/18 13:39:43;;;;;;;3.95;2.90;;;;;;;;;;4972009;28;20234;-52
2022/07/18 13:42:10;;;;;;;4.53;3.58;;;;;;;;;;4972120;28;20261;-52
2022/07/18 13:44:37;;;;;;;4.50;2.80;;;;;;;;;;4965081;28;20231;-52
2022/07/18 13:47:04;;;;;;;4.22;3.22;;;;;;;;;;4968841;28;20333;-53
2022/07/18 13:49:30;;;;;;;3.03;2.72;;;;;;;;;;4964152;28;20332;-51
2022/07/18 13:51:57;;;;;;;3.20;2.90;;;;;;;;;;4974257;28;20943;-54
2022/07/18 13:54:23;;;;;;;3.00;2.70;;;;;;;;;;4964802;28;20235;-52
2022/07/18 13:56:49;;;;;;;3.40;3.08;;;;;;;;;;4973369;28;20727;-51
2022/07/18 13:59:16;;;;;;;3.70;2.75;;;;;;;;;;4975713;28;20246;-52
2022/07/18 14:01:43;;;;;;;3.38;3.08;;;;;;;;;;4962573;28;20345;-51
2022/07/18 14:04:10;;;;;;;6.47;3.08;;;;;;;;;;4966767;28;20235;-52
2022/07/18 14:06:36;;;;;;;3.88;3.13;;;;;;;;;;4969236;28;20245;-52
2022/07/18 14:09:03;;;;;;;4.15;2.78;;;;;;;;;;4952858;28;20318;-52
2022/07/18 14:11:32;;;;;;;4.75;3.40;;;;;;;;;;4958922;28;20234;-52
2022/07/18 14:13:58;;;;;;;3.40;2.95;;;;;;;;;;4969404;28;20238;-52
2022/07/18 14:16:24;;;;;;;4.10;3.05;;;;;;;;;;4958078;28;20234;-53
2022/07/18 14:18:52;;;;;;;6.97;3.20;;;;;;;;;;4966872;28;20611;-51
2022/07/18 14:21:18;;;;;;;3.95;3.03;;;;;;;;;;4979977;28;20234;-53
2022/07/18 14:23:45;;;;;;;3.45;3.08;;;;;;;;;;4961863;28;20755;-51
2022/07/18 14:26:11;;;;;;;3.67;2.92;;;;;;;;;;4968069;28;20242;-52
2022/07/18 14:28:37;;;;;;;5.32;2.92;;;;;;;;;;4967790;28;20291;-52
2022/07/18 14:31:04;;;;;;;3.25;2.90;;;;;;;;;;4967245;28;20235;-52
2022/07/18 14:33:30;;;;;;;3.88;3.20;;;;;;;;;;4971031;28;20240;-52
2022/07/18 14:35:58;;;;;;;4.13;3.45;;;;;;;;;;4953022;28;20252;-51
2022/07/18 14:38:24;;;;;;;3.30;2.70;;;;;;;;;;4961834;28;20668;-50
2022/07/18 14:40:50;;;;;;;4.53;2.97;;;;;;;;;;4971216;28;20233;-52
2022/07/18 14:43:17;;;;;;;4.28;3.45;;;;;;;;;;4970326;28;20803;-52
2022/07/18 14:45:43;;;;;;;5.65;2.95;;;;;;;;;;4965647;28;20681;-53
2022/07/18 14:48:10;;;;;;;3.45;3.15;;;;;;;;;;4964201;28;20250;-53